createdAt,value
2022-08-11T00:01:09.801Z,20.82
2022-08-11T00:03:45.820Z,20.58
2022-08-11T00:06:15.201Z,20.65
2022-08-11T00:08:44.764Z,20.76
2022-08-11T00:11:17.118Z,20.65
2022-08-11T00:13:47.741Z,20.43
2022-08-11T00:16:18.273Z,20.48
2022-08-11T00:18:50.113Z,20.48
2022-08-11T00:21:21.072Z,20.41
2022-08-11T00:24:10.669Z,20.50
2022-08-11T00:26:38.688Z,20.52
2022-08-11T00:29:11.002Z,20.59
2022-08-11T00:31:44.766Z,20.49
2022-08-11T00:34:15.293Z,20.32
2022-08-11T00:36:48.608Z,20.45
2022-08-11T00:39:18.934Z,20.35
2022-08-11T00:42:00.863Z,20.10
2022-08-11T00:44:42.428Z,20.70
2022-08-11T00:47:18.393Z,20.47
2022-08-11T00:50:04.078Z,20.68
2022-08-11T00:52:49.149Z,20.38
2022-08-11T00:55:55.875Z,20.44
2022-08-11T00:59:34.352Z,20.30
2022-08-11T01:02:15.818Z,20.19
2022-08-11T01:05:21.941Z,20.43
2022-08-11T01:08:31.277Z,20.42
2022-08-11T01:11:55.919Z,20.24
2022-08-11T01:15:05.692Z,20.42
2022-08-11T01:18:09.634Z,20.31
2022-08-11T01:21:10.787Z,20.15
2022-08-11T01:24:31.109Z,20.35
2022-08-11T01:27:36.469Z,20.40
2022-08-11T01:30:40.562Z,19.94
2022-08-11T01:33:59.547Z,20.18
2022-08-11T01:36:57.220Z,20.27
2022-08-11T01:39:55.310Z,20.34
2022-08-11T01:43:16.417Z,20.19
2022-08-11T01:45:52.110Z,20.11
2022-08-11T01:48:41.760Z,20.05
2022-08-11T01:51:18.633Z,20.00
2022-08-11T01:54:00.745Z,20.07
2022-08-11T01:56:51.010Z,19.92
2022-08-11T01:59:24.476Z,20.15
2022-08-11T02:02:45.939Z,20.14
2022-08-11T02:05:24.735Z,20.08
2022-08-11T02:07:59.318Z,20.26
2022-08-11T02:10:56.310Z,20.29
2022-08-11T02:13:37.266Z,20.16
2022-08-11T02:16:15.999Z,20.21
2022-08-11T02:19:17.964Z,20.10
2022-08-11T02:22:18.657Z,19.85
2022-08-11T02:24:56.640Z,20.04
2022-08-11T02:27:36.180Z,19.71
2022-08-11T02:30:07.702Z,19.47
2022-08-11T02:32:57.869Z,19.26
2022-08-11T02:35:36.889Z,19.16
2022-08-11T02:38:18.113Z,19.56
2022-08-11T02:40:51.616Z,18.93
2022-08-11T02:43:30.425Z,19.19
2022-08-11T02:46:18.047Z,18.97
2022-08-11T02:49:12.192Z,19.20
2022-08-11T02:51:52.424Z,19.32
2022-08-11T02:54:28.271Z,19.28
2022-08-11T02:57:03.604Z,19.08
2022-08-11T02:59:54.510Z,19.46
2022-08-11T03:02:33.204Z,19.37
2022-08-11T03:05:08.360Z,19.34
2022-08-11T03:07:43.450Z,19.18
2022-08-11T03:10:19.493Z,19.39
2022-08-11T03:13:11.070Z,19.15
2022-08-11T03:16:10.628Z,19.24
2022-08-11T03:18:49.909Z,19.12
2022-08-11T03:21:23.668Z,19.04
2022-08-11T03:24:01.606Z,19.01
2022-08-11T03:26:38.636Z,19.06
2022-08-11T03:29:13.161Z,19.14
2022-08-11T03:31:57.915Z,19.12
2022-08-11T03:34:28.490Z,18.93
2022-08-11T03:37:37.044Z,18.77
2022-08-11T03:40:15.104Z,18.69
2022-08-11T03:42:49.300Z,18.86
2022-08-11T03:45:29.590Z,18.79
2022-08-11T03:48:11.571Z,18.59
2022-08-11T03:50:59.034Z,18.49
2022-08-11T03:53:49.229Z,18.67
2022-08-11T03:56:53.163Z,18.78
2022-08-11T03:59:44.964Z,18.63
2022-08-11T04:02:50.398Z,18.62
2022-08-11T04:06:11.817Z,18.57
2022-08-11T04:09:14.664Z,18.46
2022-08-11T04:12:36.615Z,18.41
2022-08-11T04:15:46.289Z,18.55
2022-08-11T04:19:13.280Z,18.41
2022-08-11T04:22:09.462Z,18.79
2022-08-11T04:25:00.475Z,18.79
2022-08-11T04:28:00.797Z,18.80
2022-08-11T04:30:40.518Z,18.76
2022-08-11T04:33:57.114Z,18.94
2022-08-11T04:37:11.862Z,19.74
2022-08-11T04:40:10.741Z,21.50
2022-08-11T04:43:23.018Z,22.39
2022-08-11T04:46:18.704Z,22.95
2022-08-11T04:49:24.939Z,22.95
2022-08-11T04:53:01.799Z,23.30
2022-08-11T04:56:22.917Z,23.37
2022-08-11T04:59:32.008Z,22.58
2022-08-11T05:02:31.461Z,22.81
2022-08-11T05:05:29.476Z,22.27
2022-08-11T05:08:34.832Z,22.68
2022-08-11T05:11:52.755Z,24.03
2022-08-11T05:14:57.473Z,24.38
2022-08-11T05:17:52.987Z,24.85
2022-08-11T05:20:42.193Z,24.32
2022-08-11T05:23:29.923Z,23.61
2022-08-11T05:26:48.023Z,24.33
2022-08-11T05:29:59.939Z,24.21
2022-08-11T05:32:54.205Z,24.78
2022-08-11T05:36:00.396Z,25.28
2022-08-11T05:38:39.941Z,25.78
2022-08-11T05:41:26.388Z,24.84
2022-08-11T05:44:19.695Z,25.67
2022-08-11T05:47:09.993Z,26.09
2022-08-11T05:49:58.105Z,26.50
2022-08-11T05:52:55.285Z,26.10
2022-08-11T05:56:01.952Z,26.10
2022-08-11T05:58:41.182Z,26.57
2022-08-11T06:01:11.880Z,26.06
2022-08-11T06:03:59.786Z,25.77
2022-08-11T06:06:29.325Z,25.89
2022-08-11T06:08:58.944Z,26.52
2022-08-11T06:11:43.292Z,26.60
2022-08-11T06:14:15.527Z,27.16
2022-08-11T06:16:44.548Z,27.08
2022-08-11T06:19:14.512Z,26.89
2022-08-11T06:21:46.721Z,27.14
2022-08-11T06:24:16.534Z,27.25
2022-08-11T06:27:11.387Z,26.86
2022-08-11T06:29:48.109Z,26.83
2022-08-11T06:32:24.959Z,27.78
2022-08-11T06:35:05.038Z,27.79
2022-08-11T06:37:45.387Z,28.38
2022-08-11T06:40:27.383Z,28.09
2022-08-11T06:43:00.087Z,27.69
2022-08-11T06:45:31.881Z,27.97
2022-08-11T06:48:02.979Z,28.32
2022-08-11T06:50:51.179Z,28.24
2022-08-11T06:53:21.285Z,28.24
2022-08-11T06:56:08.642Z,28.49
2022-08-11T06:58:58.139Z,28.58
2022-08-11T07:01:38.491Z,29.15
2022-08-11T07:04:09.462Z,29.28
2022-08-11T07:07:10.773Z,29.64
2022-08-11T07:10:33.043Z,28.58
2022-08-11T07:13:39.337Z,28.52
2022-08-11T07:16:12.599Z,28.92
2022-08-11T07:19:00.445Z,28.53
2022-08-11T07:22:01.923Z,28.37
2022-08-11T07:24:59.655Z,28.45
2022-08-11T07:27:55.604Z,28.81
2022-08-11T07:30:25.909Z,28.99
2022-08-11T07:32:56.372Z,28.75
2022-08-11T07:35:29.512Z,28.57
2022-08-11T07:38:02.221Z,28.30
2022-08-11T07:40:33.811Z,28.98
2022-08-11T07:43:02.692Z,29.30
2022-08-11T07:45:48.856Z,28.66
2022-08-11T07:48:35.203Z,27.77
2022-08-11T07:51:21.174Z,27.25
2022-08-11T07:53:58.310Z,27.90
2022-08-11T07:56:55.348Z,28.70
2022-08-11T07:59:58.608Z,30.23
2022-08-11T08:02:48.965Z,30.52
2022-08-11T08:05:36.307Z,31.20
2022-08-11T08:08:22.921Z,29.73
2022-08-11T08:11:10.462Z,29.18
2022-08-11T08:13:58.049Z,29.80
2022-08-11T08:16:44.775Z,30.46
2022-08-11T08:19:13.885Z,30.95
2022-08-11T08:21:45.366Z,31.00
2022-08-11T08:24:15.027Z,30.42
2022-08-11T08:26:59.594Z,30.10
2022-08-11T08:29:49.781Z,30.83
2022-08-11T08:32:18.777Z,31.11
2022-08-11T08:34:47.714Z,30.98
2022-08-11T08:37:46.220Z,31.65
2022-08-11T08:40:10.107Z,31.29
2022-08-11T08:42:45.541Z,31.32
2022-08-11T08:45:18.436Z,31.53
2022-08-11T08:47:53.512Z,31.72
2022-08-11T08:50:46.936Z,31.53
2022-08-11T08:53:18.732Z,31.20
2022-08-11T08:55:47.424Z,32.00
2022-08-11T08:58:17.506Z,32.64
2022-08-11T09:00:48.421Z,31.90
2022-08-11T09:03:39.916Z,32.03
2022-08-11T09:06:04.941Z,32.39
2022-08-11T09:08:35.224Z,32.36
2022-08-11T09:11:22.679Z,33.26
2022-08-11T09:14:05.139Z,32.42
2022-08-11T09:16:39.671Z,32.09
2022-08-11T09:19:09.245Z,31.45
2022-08-11T09:21:49.198Z,32.34
2022-08-11T09:24:36.940Z,31.86
2022-08-11T09:27:07.901Z,31.33
2022-08-11T09:29:37.335Z,31.70
2022-08-11T09:32:08.978Z,31.51
2022-08-11T09:34:39.868Z,31.20
2022-08-11T09:37:53.719Z,31.43
2022-08-11T09:40:33.523Z,31.19
2022-08-11T09:43:23.136Z,31.78
2022-08-11T09:45:53.616Z,32.19
2022-08-11T09:48:24.964Z,32.16
2022-08-11T09:50:55.517Z,32.23
2022-08-11T09:53:41.064Z,31.70
2022-08-11T09:56:31.653Z,30.36
2022-08-11T09:59:00.626Z,30.88
2022-08-11T10:01:31.991Z,31.45
2022-08-11T10:04:05.196Z,31.69
2022-08-11T10:06:54.472Z,32.78
2022-08-11T10:09:25.513Z,32.80
2022-08-11T10:11:58.335Z,33.11
2022-08-11T10:14:45.458Z,33.30
2022-08-11T10:17:16.021Z,32.49
2022-08-11T10:20:03.967Z,31.77
2022-08-11T10:22:51.803Z,32.06
2022-08-11T10:25:38.666Z,33.03
2022-08-11T10:28:33.087Z,32.34
2022-08-11T10:31:22.784Z,31.28
2022-08-11T10:34:10.793Z,30.63
2022-08-11T10:36:47.122Z,31.20
2022-08-11T10:39:18.439Z,32.14
2022-08-11T10:42:08.858Z,32.09
2022-08-11T10:44:41.097Z,32.83
2022-08-11T10:47:29.809Z,32.76
2022-08-11T10:50:15.912Z,32.43
2022-08-11T10:53:06.034Z,32.94
2022-08-11T10:55:52.688Z,32.07
2022-08-11T10:58:39.883Z,32.52
2022-08-11T11:01:08.149Z,32.48
2022-08-11T11:03:37.495Z,33.11
2022-08-11T11:06:28.508Z,33.22
2022-08-11T11:09:05.374Z,33.14
2022-08-11T11:11:56.471Z,32.46
2022-08-11T11:14:50.698Z,32.11
2022-08-11T11:17:45.118Z,31.21
2022-08-11T11:20:37.140Z,32.38
2022-08-11T11:23:09.398Z,31.53
2022-08-11T11:26:06.598Z,32.64
2022-08-11T11:28:51.117Z,32.71
2022-08-11T11:31:30.523Z,32.67
2022-08-11T11:34:16.226Z,32.76
2022-08-11T11:36:49.530Z,33.49
2022-08-11T11:39:21.740Z,31.89
2022-08-11T11:41:54.372Z,30.16
2022-08-11T11:44:23.821Z,28.90
2022-08-11T11:46:52.696Z,28.55
2022-08-11T11:49:25.779Z,28.96
2022-08-11T11:51:54.711Z,28.71
2022-08-11T11:54:26.551Z,27.88
2022-08-11T11:56:57.865Z,27.44
2022-08-11T11:59:47.769Z,27.56
2022-08-11T12:02:17.433Z,29.94
2022-08-11T12:04:49.797Z,30.59
2022-08-11T12:07:36.892Z,31.74
2022-08-11T12:10:05.991Z,31.89
2022-08-11T12:12:49.601Z,30.25
2022-08-11T12:15:19.919Z,28.82
2022-08-11T12:18:08.473Z,27.62
2022-08-11T12:20:37.004Z,28.35
2022-08-11T12:23:23.110Z,28.49
2022-08-11T12:26:27.390Z,28.94
2022-08-11T12:28:58.228Z,27.90
2022-08-11T12:31:27.561Z,27.83
2022-08-11T12:34:01.998Z,27.85
2022-08-11T12:36:31.068Z,29.36
2022-08-11T12:38:59.786Z,29.32
2022-08-11T12:41:53.619Z,28.66
2022-08-11T12:44:44.454Z,28.66
2022-08-11T12:47:18.419Z,27.92
2022-08-11T12:50:06.841Z,27.84
2022-08-11T12:52:57.083Z,28.18
2022-08-11T12:55:40.140Z,27.94
2022-08-11T12:58:18.030Z,29.23
2022-08-11T13:01:06.569Z,28.97
2022-08-11T13:03:59.039Z,28.74
2022-08-11T13:06:27.456Z,28.16
2022-08-11T13:09:00.934Z,28.24
2022-08-11T13:11:56.876Z,27.72
2022-08-11T13:14:26.899Z,28.25
2022-08-11T13:17:14.834Z,24.91
2022-08-11T13:19:49.602Z,27.66
2022-08-11T13:22:19.584Z,27.44
2022-08-11T13:24:49.220Z,27.55
2022-08-11T13:27:19.841Z,26.88
2022-08-11T13:29:49.597Z,27.34
2022-08-11T13:32:21.497Z,27.53
2022-08-11T13:34:49.938Z,27.28
2022-08-11T13:37:20.654Z,27.63
2022-08-11T13:40:11.568Z,27.37
2022-08-11T13:42:41.773Z,27.27
2022-08-11T13:45:10.892Z,27.10
2022-08-11T13:47:44.376Z,26.78
2022-08-11T13:50:13.966Z,26.91
2022-08-11T13:52:43.224Z,27.09
2022-08-11T13:55:33.317Z,27.54
2022-08-11T13:58:19.099Z,27.75
2022-08-11T14:00:52.666Z,27.51
2022-08-11T14:03:26.872Z,27.26
2022-08-11T14:06:16.281Z,27.52
2022-08-11T14:08:47.379Z,27.48
2022-08-11T14:12:22.060Z,27.79
2022-08-11T14:14:26.789Z,27.77
2022-08-11T14:16:58.533Z,27.59
2022-08-11T14:19:29.389Z,27.37
2022-08-11T14:22:11.424Z,26.99
2022-08-11T14:24:41.522Z,26.90
2022-08-11T14:28:32.640Z,27.19
2022-08-11T14:30:00.420Z,27.28
2022-08-11T14:32:28.635Z,26.76
2022-08-11T14:34:59.134Z,27.08
2022-08-11T14:37:29.133Z,27.39
2022-08-11T14:40:03.220Z,27.60
2022-08-11T14:42:49.928Z,27.71
2022-08-11T14:45:58.455Z,27.63
2022-08-11T14:48:28.138Z,26.65
2022-08-11T14:50:58.085Z,27.64
2022-08-11T14:53:26.700Z,27.61
2022-08-11T14:56:13.195Z,27.56
2022-08-11T14:58:43.228Z,27.34
2022-08-11T15:01:25.927Z,27.57
2022-08-11T15:04:01.210Z,26.22
2022-08-11T15:06:44.316Z,27.27
2022-08-11T15:09:12.457Z,27.35
2022-08-11T15:11:58.656Z,27.00
2022-08-11T15:14:41.357Z,26.37
2022-08-11T15:17:12.651Z,27.34
2022-08-11T15:20:05.133Z,26.72
2022-08-11T15:22:52.768Z,27.19
2022-08-11T15:25:21.250Z,27.04
2022-08-11T15:28:11.495Z,27.06
2022-08-11T15:30:57.601Z,26.99
2022-08-11T15:33:47.310Z,26.95
2022-08-11T15:36:33.654Z,26.67
2022-08-11T15:39:19.509Z,26.83
2022-08-11T15:42:12.972Z,26.78
2022-08-11T15:45:03.558Z,26.66
2022-08-11T15:47:38.944Z,26.55
2022-08-11T15:50:14.192Z,26.66
2022-08-11T15:52:51.007Z,26.40
2022-08-11T15:55:23.547Z,26.38
2022-08-11T15:58:12.202Z,25.42
2022-08-11T16:01:02.001Z,26.40
2022-08-11T16:04:08.060Z,26.32
2022-08-11T16:06:47.507Z,26.39
2022-08-11T16:09:21.411Z,26.23
2022-08-11T16:11:52.498Z,26.16
2022-08-11T16:14:53.624Z,26.15
2022-08-11T16:17:22.688Z,26.07
2022-08-11T16:19:54.585Z,26.08
2022-08-11T16:22:34.415Z,26.01
2022-08-11T16:27:04.999Z,25.96
2022-08-11T16:27:57.160Z,25.79
2022-08-11T16:30:26.126Z,25.25
2022-08-11T16:32:55.525Z,26.10
2022-08-11T16:35:43.683Z,26.08
2022-08-11T16:38:31.898Z,26.03
2022-08-11T16:41:01.928Z,26.10
2022-08-11T16:43:50.872Z,25.74
2022-08-11T16:46:39.226Z,26.05
2022-08-11T16:49:11.942Z,26.03
2022-08-11T16:51:40.099Z,25.85
2022-08-11T16:54:08.500Z,25.80
2022-08-11T16:56:42.341Z,26.11
2022-08-11T16:59:18.224Z,25.13
2022-08-11T17:01:53.370Z,25.98
2022-08-11T17:04:54.485Z,25.87
2022-08-11T17:07:43.260Z,26.01
2022-08-11T17:10:52.077Z,25.70
2022-08-11T17:13:32.867Z,25.88
2022-08-11T17:16:12.525Z,25.83
2022-08-11T17:18:52.608Z,25.78
2022-08-11T17:21:23.992Z,25.42
2022-08-11T17:23:55.213Z,25.66
2022-08-11T17:26:27.941Z,25.55
2022-08-11T17:28:58.959Z,25.16
2022-08-11T17:31:47.529Z,25.39
2022-08-11T17:34:33.805Z,25.40
2022-08-11T17:37:02.436Z,25.39
2022-08-11T17:39:32.907Z,25.33
2022-08-11T17:42:20.168Z,25.10
2022-08-11T17:45:07.478Z,25.18
2022-08-11T17:47:54.858Z,25.17
2022-08-11T17:50:24.084Z,25.08
2022-08-11T17:53:11.143Z,24.62
2022-08-11T17:55:58.597Z,24.96
2022-08-11T17:58:45.407Z,24.97
2022-08-11T18:01:14.363Z,24.71
2022-08-11T18:03:56.387Z,24.88
2022-08-11T18:06:29.711Z,24.78
2022-08-11T18:09:23.371Z,24.78
2022-08-11T18:12:11.822Z,24.96
2022-08-11T18:14:59.175Z,24.98
2022-08-11T18:17:44.587Z,24.78
2022-08-11T18:20:31.305Z,24.86
2022-08-11T18:23:20.711Z,24.86
2022-08-11T18:26:07.734Z,24.86
2022-08-11T18:29:01.675Z,24.78
2022-08-11T18:31:51.112Z,24.73
2022-08-11T18:34:40.643Z,24.70
2022-08-11T18:37:37.389Z,24.76
2022-08-11T18:40:28.550Z,24.75
2022-08-11T18:43:16.759Z,24.70
2022-08-11T18:46:07.768Z,24.52
2022-08-11T18:48:56.684Z,24.64
2022-08-11T18:51:43.999Z,24.60
2022-08-11T18:54:32.640Z,24.50
2022-08-11T18:57:22.501Z,24.42
2022-08-11T19:00:11.146Z,24.35
2022-08-11T19:03:00.014Z,24.28
2022-08-11T19:06:32.508Z,24.27
2022-08-11T19:09:01.264Z,24.01
2022-08-11T19:11:51.688Z,24.10
2022-08-11T19:14:38.309Z,24.06
2022-08-11T19:17:44.338Z,24.01
2022-08-11T19:20:35.544Z,23.71
2022-08-11T19:23:25.476Z,24.07
2022-08-11T19:26:14.243Z,24.05
2022-08-11T19:29:03.478Z,24.05
2022-08-11T19:31:51.664Z,23.68
2022-08-11T19:34:39.318Z,23.81
2022-08-11T19:37:26.049Z,24.13
2022-08-11T19:40:13.042Z,24.13
2022-08-11T19:43:01.872Z,23.97
2022-08-11T19:45:52.289Z,23.51
2022-08-11T19:48:43.196Z,23.80
2022-08-11T19:51:30.647Z,23.65
2022-08-11T19:54:19.973Z,23.50
2022-08-11T19:57:11.320Z,23.16
2022-08-11T19:59:58.279Z,23.35
2022-08-11T20:02:45.933Z,23.31
2022-08-11T20:05:32.105Z,23.29
2022-08-11T20:08:18.991Z,23.24
2022-08-11T20:11:06.729Z,23.19
2022-08-11T20:13:54.076Z,23.02
2022-08-11T20:16:41.604Z,22.78
2022-08-11T20:19:56.263Z,22.90
2022-08-11T20:22:37.402Z,22.87
2022-08-11T20:25:26.296Z,22.42
2022-08-11T20:28:14.176Z,22.49
2022-08-11T20:31:03.903Z,22.32
2022-08-11T20:33:52.281Z,21.07
2022-08-11T20:36:40.520Z,22.45
2022-08-11T20:39:27.311Z,22.46
2022-08-11T20:42:14.428Z,22.38
2022-08-11T20:45:00.456Z,22.31
2022-08-11T20:47:56.807Z,21.52
2022-08-11T20:50:46.640Z,22.21
2022-08-11T20:53:40.511Z,22.21
2022-08-11T20:56:28.502Z,22.19
2022-08-11T20:59:18.359Z,22.22
2022-08-11T21:02:10.029Z,22.27
2022-08-11T21:04:57.825Z,22.24
2022-08-11T21:07:55.351Z,22.22
2022-08-11T21:10:46.744Z,21.22
2022-08-11T21:13:36.904Z,21.99
2022-08-11T21:16:27.302Z,21.24
2022-08-11T21:19:54.475Z,21.74
2022-08-11T21:22:27.983Z,21.53
2022-08-11T21:25:16.417Z,21.26
2022-08-11T21:28:05.224Z,21.27
2022-08-11T21:30:57.770Z,21.05
2022-08-11T21:33:45.658Z,21.09
2022-08-11T21:36:32.893Z,20.91
2022-08-11T21:39:21.077Z,19.80
2022-08-11T21:42:12.348Z,20.84
2022-08-11T21:45:01.369Z,20.77
2022-08-11T21:47:48.543Z,20.75
2022-08-11T21:50:34.425Z,20.53
2022-08-11T21:53:20.704Z,20.81
2022-08-11T21:56:08.079Z,20.82
2022-08-11T21:58:54.603Z,19.56
2022-08-11T22:01:42.433Z,20.88
2022-08-11T22:04:28.910Z,20.89
2022-08-11T22:07:15.219Z,20.81
2022-08-11T22:10:00.972Z,20.93
2022-08-11T22:13:06.224Z,19.80
2022-08-11T22:15:51.814Z,20.92
2022-08-11T22:18:38.888Z,20.85
2022-08-11T22:22:02.413Z,20.62
2022-08-11T22:24:31.947Z,20.85
2022-08-11T22:27:17.345Z,20.88
2022-08-11T22:30:02.992Z,20.89
2022-08-11T22:32:48.933Z,20.90
2022-08-11T22:35:36.469Z,20.87
2022-08-11T22:38:22.574Z,20.83
2022-08-11T22:41:08.016Z,20.86
2022-08-11T22:43:53.274Z,20.80
2022-08-11T22:46:40.285Z,19.84
2022-08-11T22:49:27.655Z,20.75
2022-08-11T22:52:17.198Z,20.58
2022-08-11T22:55:05.069Z,20.79
2022-08-11T22:58:01.118Z,20.78
2022-08-11T23:00:47.672Z,20.74
2022-08-11T23:03:38.015Z,20.73
2022-08-11T23:06:24.208Z,20.53
2022-08-11T23:09:11.953Z,20.77
2022-08-11T23:12:07.901Z,20.64
2022-08-11T23:14:57.437Z,20.50
2022-08-11T23:17:43.090Z,20.52
2022-08-11T23:20:39.650Z,20.75
2022-08-11T23:23:28.137Z,20.80
2022-08-11T23:26:15.501Z,20.32
2022-08-11T23:29:05.399Z,19.95
2022-08-11T23:31:53.797Z,20.55
2022-08-11T23:35:04.882Z,20.73
2022-08-11T23:37:48.565Z,20.51
2022-08-11T23:40:34.242Z,20.75
2022-08-11T23:43:21.416Z,20.81
2022-08-11T23:46:06.860Z,20.85
2022-08-11T23:48:52.635Z,19.88
2022-08-11T23:51:41.232Z,21.18
2022-08-11T23:54:27.422Z,21.28
2022-08-11T23:57:13.545Z,21.30
